Time;durP1;ratioP1;P1;durP2;ratioP2;P2;SDS_P1;SDS_P2;PMS_P1;PMS_P2;Temp;Humidity;BMP_temperature;BMP_pressure;BME280_temperature;BME280_humidity;BME280_pressure;Samples;Min_cycle;Max_cycle;Signal;HPM_P1;HPM_P2
2023/08/25 00:01:50;;;;;;;4.45;3.47;;;29.60;50.40;;;;;;5048618;28;20041;-69
2023/08/25 00:04:16;;;;;;;3.58;3.20;;;29.40;50.40;;;;;;5035199;28;20041;-69
2023/08/25 00:06:42;;;;;;;5.18;3.33;;;29.50;50.40;;;;;;5052013;28;20522;-68
2023/08/25 00:09:09;;;;;;;3.72;3.30;;;29.50;50.50;;;;;;5051912;28;20128;-69
2023/08/25 00:11:37;;;;;;;3.75;3.35;;;29.50;50.50;;;;;;5052018;28;20064;-68
2023/08/25 00:14:03;;;;;;;3.55;3.00;;;29.60;50.50;;;;;;5038120;28;20098;-69
2023/08/25 00:16:29;;;;;;;3.00;2.75;;;29.40;50.60;;;;;;5038657;28;20040;-69
2023/08/25 00:18:55;;;;;;;4.38;3.53;;;29.60;50.60;;;;;;5071561;28;20036;-69
2023/08/25 00:21:21;;;;;;;3.60;3.13;;;29.60;50.60;;;;;;5054857;28;20579;-69
2023/08/25 00:23:47;;;;;;;4.30;3.25;;;29.50;50.60;;;;;;5071521;28;20072;-68
2023/08/25 00:26:15;;;;;;;4.50;3.25;;;29.60;50.60;;;;;;5038161;28;20089;-68
2023/08/25 00:28:41;;;;;;;5.03;3.42;;;29.50;50.60;;;;;;5038185;28;20037;-69
2023/08/25 00:31:07;;;;;;;4.15;3.08;;;29.60;50.60;;;;;;5056934;28;20067;-69
2023/08/25 00:33:33;;;;;;;4.78;3.60;;;29.50;50.60;;;;;;5036283;28;20040;-68
2023/08/25 00:36:00;;;;;;;4.43;3.47;;;29.50;50.60;;;;;;5052581;28;20033;-66
2023/08/25 00:38:28;;;;;;;4.60;3.50;;;29.50;50.60;;;;;;5052354;28;20044;-68
2023/08/25 00:40:55;;;;;;;4.63;4.00;;;29.40;50.70;;;;;;5035838;28;20436;-69
2023/08/25 00:43:21;;;;;;;4.97;3.67;;;29.50;50.70;;;;;;5036198;28;20037;-69
2023/08/25 00:45:47;;;;;;;4.47;3.60;;;29.50;50.80;;;;;;5053569;28;20110;-69
2023/08/25 00:48:13;;;;;;;4.43;3.67;;;29.50;50.80;;;;;;5053765;28;20175;-69
2023/08/25 00:50:40;;;;;;;4.35;3.15;;;29.50;50.80;;;;;;5052372;28;20037;-68
2023/08/25 00:53:07;;;;;;;4.18;3.20;;;29.40;50.80;;;;;;5050659;28;20481;-68
2023/08/25 00:55:34;;;;;;;3.75;3.17;;;29.50;50.90;;;;;;5050933;28;20066;-68
2023/08/25 00:58:01;;;;;;;4.10;3.33;;;29.50;50.90;;;;;;5050838;28;20052;-68
2023/08/25 01:00:29;;;;;;;4.15;3.13;;;29.40;50.90;;;;;;5034320;28;20045;-68
2023/08/25 01:02:55;;;;;;;3.83;2.97;;;29.50;50.90;;;;;;5034119;28;20064;-69
2023/08/25 01:05:21;;;;;;;3.50;3.17;;;29.40;51.00;;;;;;5034343;28;20052;-68
2023/08/25 01:07:48;;;;;;;4.00;3.40;;;29.40;51.00;;;;;;5050742;28;20134;-69
2023/08/25 01:10:15;;;;;;;4.93;3.55;;;29.50;51.00;;;;;;5051714;28;20453;-69
2023/08/25 01:13:02;;;;;;;5.38;3.92;;;29.50;51.00;;;;;;5052536;28;20411;-69
2023/08/25 01:15:32;;;;;;;3.95;2.90;;;29.50;51.00;;;;;;5053254;28;20044;-68
2023/08/25 01:18:09;;;;;;;3.28;2.95;;;29.40;51.10;;;;;;5070650;28;20127;-69
2023/08/25 01:20:37;;;;;;;3.75;3.38;;;29.60;51.00;;;;;;5053949;28;20063;-68
2023/08/25 01:23:04;;;;;;;4.68;3.50;;;29.50;51.10;;;;;;5053935;28;20032;-69
2023/08/25 01:25:31;;;;;;;3.22;2.92;;;29.50;51.10;;;;;;5053967;28;20044;-69
2023/08/25 01:28:03;;;;;;;3.78;3.33;;;29.40;51.10;;;;;;5037139;28;20034;-68
2023/08/25 01:30:32;;;;;;;4.22;3.40;;;29.50;51.10;;;;;;5044356;28;20049;-68
2023/08/25 01:32:59;;;;;;;5.75;3.65;;;29.40;51.10;;;;;;5072765;28;20028;-69
2023/08/25 01:35:38;;;;;;;3.35;2.92;;;29.50;51.10;;;;;;5072922;28;20051;-67
2023/08/25 01:38:30;;;;;;;3.50;3.20;;;29.30;51.10;;;;;;5072844;28;20038;-69
2023/08/25 01:41:18;;;;;;;4.07;2.97;;;29.40;51.10;;;;;;5071531;28;20133;-68
2023/08/25 01:43:48;;;;;;;3.78;3.33;;;29.40;51.10;;;;;;5072780;28;20044;-69
2023/08/25 01:46:17;;;;;;;4.45;3.47;;;29.30;51.10;;;;;;5070163;28;20553;-69
2023/08/25 01:48:45;;;;;;;3.63;3.08;;;29.40;51.10;;;;;;5072374;28;20028;-68
2023/08/25 01:51:12;;;;;;;3.13;2.83;;;29.40;51.20;;;;;;5054573;28;20033;-69
2023/08/25 01:53:38;;;;;;;4.20;3.03;;;29.40;51.20;;;;;;5072396;28;20033;-69
2023/08/25 01:56:04;;;;;;;3.67;3.10;;;29.40;51.30;;;;;;5072325;28;20408;-69
2023/08/25 01:58:32;;;;;;;3.25;2.80;;;29.40;51.30;;;;;;5071149;28;20115;-68
2023/08/25 02:00:58;;;;;;;6.15;3.58;;;29.50;51.30;;;;;;5051790;28;20366;-69
2023/08/25 02:03:24;;;;;;;4.63;3.97;;;29.40;51.30;;;;;;5051129;28;20078;-69
2023/08/25 02:05:50;;;;;;;4.45;3.25;;;29.40;51.30;;;;;;5051080;28;20112;-67
2023/08/25 02:08:16;;;;;;;3.65;3.33;;;29.40;51.30;;;;;;5052309;28;20429;-68
2023/08/25 02:10:42;;;;;;;3.88;2.92;;;29.50;51.40;;;;;;5052250;28;20047;-68
2023/08/25 02:13:08;;;;;;;7.88;4.05;;;29.50;51.30;;;;;;5052003;28;20188;-68
2023/08/25 02:15:35;;;;;;;4.45;3.25;;;29.50;51.40;;;;;;5049699;28;20049;-68
2023/08/25 02:18:02;;;;;;;5.18;3.78;;;29.50;51.40;;;;;;5050853;28;20469;-68
2023/08/25 02:20:28;;;;;;;5.82;3.70;;;29.40;51.40;;;;;;5050465;28;20112;-68
2023/08/25 02:22:54;;;;;;;6.88;3.47;;;29.40;51.40;;;;;;5052288;28;20104;-68
2023/08/25 02:25:21;;;;;;;5.20;3.35;;;29.30;51.40;;;;;;5050398;28;20032;-68
2023/08/25 02:27:47;;;;;;;5.43;3.53;;;29.50;51.40;;;;;;5050588;28;20104;-68
2023/08/25 02:30:13;;;;;;;9.38;4.38;;;29.50;51.40;;;;;;5051649;28;20028;-68
2023/08/25 02:32:39;;;;;;;3.70;3.38;;;29.50;51.40;;;;;;5050527;28;20033;-69
2023/08/25 02:35:06;;;;;;;3.83;3.08;;;29.50;51.40;;;;;;5051593;28;20083;-68
2023/08/25 02:37:33;;;;;;;5.53;3.42;;;29.50;51.40;;;;;;5050416;28;20044;-68
2023/08/25 02:39:59;;;;;;;3.13;2.80;;;29.40;51.40;;;;;;5051652;28;20033;-68
2023/08/25 02:42:26;;;;;;;3.33;3.00;;;29.40;51.40;;;;;;5050140;28;20056;-68
2023/08/25 02:44:52;;;;;;;3.97;3.42;;;29.30;51.40;;;;;;5050287;28;20048;-68
2023/08/25 02:47:18;;;;;;;3.20;2.90;;;29.30;51.40;;;;;;5049946;28;20045;-68
2023/08/25 02:49:44;;;;;;;3.33;3.03;;;29.40;51.40;;;;;;5051330;28;20083;-68
2023/08/25 02:52:10;;;;;;;3.50;3.20;;;29.40;51.40;;;;;;5050231;28;20388;-68
2023/08/25 02:54:36;;;;;;;3.42;3.05;;;29.40;51.50;;;;;;5050164;28;20154;-68
2023/08/25 02:57:02;;;;;;;3.25;2.75;;;29.40;51.40;;;;;;5065726;28;20135;-68
2023/08/25 02:59:28;;;;;;;4.22;3.15;;;29.50;51.50;;;;;;5049808;28;20025;-68
2023/08/25 03:01:54;;;;;;;3.25;2.95;;;29.50;51.60;;;;;;5049874;28;20558;-68
2023/08/25 03:04:20;;;;;;;2.85;2.60;;;29.40;51.60;;;;;;5049827;28;20100;-68
2023/08/25 03:06:47;;;;;;;3.60;3.20;;;29.30;51.60;;;;;;5065112;28;20032;-68
2023/08/25 03:09:13;;;;;;;3.63;3.33;;;29.50;51.60;;;;;;5069994;28;20434;-68
2023/08/25 03:11:39;;;;;;;2.30;2.10;;;29.40;51.60;;;;;;5069952;28;20752;-68
2023/08/25 03:14:08;;;;;;;3.42;3.13;;;29.40;51.70;;;;;;5069708;28;20420;-68
2023/08/25 03:16:33;;;;;;;2.65;2.20;;;29.40;51.70;;;;;;5069776;28;20554;-68
2023/08/25 03:19:00;;;;;;;3.28;2.95;;;29.30;51.70;;;;;;5069801;28;20081;-68
2023/08/25 03:21:27;;;;;;;3.55;3.00;;;29.30;51.70;;;;;;5069672;28;20494;-68
2023/08/25 03:23:53;;;;;;;6.05;3.40;;;29.40;51.70;;;;;;5069889;28;20609;-68
2023/08/25 03:26:19;;;;;;;5.97;3.60;;;29.50;51.70;;;;;;5071168;28;20079;-67
2023/08/25 03:28:47;;;;;;;5.07;3.00;;;29.40;51.70;;;;;;5068842;28;20060;-68
2023/08/25 03:31:13;;;;;;;3.40;2.60;;;29.50;51.70;;;;;;5070932;28;20085;-68
2023/08/25 03:33:39;;;;;;;3.15;2.85;;;29.40;51.70;;;;;;5069681;28;20064;-68
2023/08/25 03:36:05;;;;;;;2.80;2.60;;;29.50;51.70;;;;;;5071148;28;20036;-68
2023/08/25 03:38:32;;;;;;;3.88;2.88;;;29.40;51.80;;;;;;5073240;28;20123;-68
2023/08/25 03:41:01;;;;;;;4.75;2.60;;;29.50;51.80;;;;;;5073423;28;20032;-69
2023/08/25 03:43:27;;;;;;;4.65;2.92;;;29.40;51.70;;;;;;5073544;28;20464;-68
2023/08/25 03:45:53;;;;;;;4.95;3.58;;;29.50;51.70;;;;;;5073519;28;20048;-68
2023/08/25 03:48:20;;;;;;;3.88;2.80;;;29.40;51.70;;;;;;5073324;28;20052;-68
2023/08/25 03:50:49;;;;;;;2.75;2.55;;;29.30;51.70;;;;;;5074719;28;20032;-68
2023/08/25 03:53:16;;;;;;;3.42;2.95;;;29.40;51.70;;;;;;5073519;28;20464;-68
2023/08/25 03:55:42;;;;;;;6.47;3.05;;;29.40;51.60;;;;;;5074818;28;20071;-69
2023/08/25 03:58:10;;;;;;;5.40;3.17;;;29.30;51.30;;;;;;5074502;28;20032;-69
2023/08/25 04:00:36;;;;;;;3.53;3.08;;;29.30;50.70;;;;;;5074473;28;20028;-69
2023/08/25 04:03:03;;;;;;;8.60;4.47;;;29.40;50.50;;;;;;5074590;28;20036;-69
2023/08/25 04:05:30;;;;;;;4.38;3.58;;;29.30;49.90;;;;;;5021532;28;20034;-69
2023/08/25 04:07:56;;;;;;;4.65;3.35;;;29.20;49.50;;;;;;5053378;28;20036;-69
2023/08/25 04:10:23;;;;;;;8.55;3.70;;;29.30;49.00;;;;;;5054184;28;20037;-67
2023/08/25 04:12:49;;;;;;;6.50;3.63;;;29.20;48.40;;;;;;5054196;28;20029;-68
2023/08/25 04:15:15;;;;;;;5.63;4.40;;;29.30;48.10;;;;;;5054112;28;20461;-68
2023/08/25 04:17:41;;;;;;;9.57;4.43;;;29.60;49.50;;;;;;5053249;28;20040;-67
2023/08/25 04:20:10;;;;;;;7.32;4.22;;;30.00;52.60;;;;;;5052671;28;20435;-67
2023/08/25 04:22:36;;;;;;;6.50;4.38;;;30.10;52.30;;;;;;5036223;28;20481;-68
2023/08/25 04:25:02;;;;;;;6.80;4.65;;;30.20;51.90;;;;;;5054051;28;20103;-68
2023/08/25 04:27:29;;;;;;;5.22;3.95;;;30.10;49.80;;;;;;5036254;28;20024;-68
2023/08/25 04:29:54;;;;;;;5.88;4.32;;;29.90;48.20;;;;;;5052576;28;20086;-67
2023/08/25 04:32:22;;;;;;;8.95;4.15;;;29.90;48.20;;;;;;5050983;28;20048;-67
2023/08/25 04:34:48;;;;;;;7.20;3.67;;;29.90;48.10;;;;;;5034588;28;20051;-67
2023/08/25 04:37:14;;;;;;;7.38;3.85;;;29.90;48.50;;;;;;5034411;28;20057;-68
2023/08/25 04:39:41;;;;;;;6.90;4.22;;;29.80;48.50;;;;;;5017826;28;20041;-68
2023/08/25 04:42:08;;;;;;;5.65;3.58;;;29.70;48.60;;;;;;5034259;28;20098;-69
2023/08/25 04:44:35;;;;;;;4.55;3.65;;;29.70;48.70;;;;;;5034355;28;20467;-68
2023/08/25 04:47:02;;;;;;;4.63;4.18;;;29.80;48.80;;;;;;5034068;28;20102;-68
2023/08/25 04:49:29;;;;;;;4.30;3.47;;;29.70;48.80;;;;;;5034094;28;20489;-69
2023/08/25 04:51:55;;;;;;;8.05;4.10;;;29.70;48.90;;;;;;5017734;28;20166;-69
2023/08/25 04:54:21;;;;;;;7.60;4.05;;;29.60;48.80;;;;;;5034393;28;20041;-67
2023/08/25 04:56:49;;;;;;;4.95;4.13;;;29.60;48.80;;;;;;5033953;28;20041;-68
2023/08/25 04:59:16;;;;;;;7.10;3.58;;;29.60;48.60;;;;;;5034343;28;20029;-69
2023/08/25 05:01:42;;;;;;;9.98;4.78;;;29.70;48.60;;;;;;5034166;28;20033;-69
2023/08/25 05:04:11;;;;;;;5.85;4.32;;;29.50;47.60;;;;;;5033966;28;20127;-69
2023/08/25 05:06:37;;;;;;;7.30;4.80;;;29.60;46.80;;;;;;5034060;28;20029;-69
2023/08/25 05:09:03;;;;;;;5.93;3.88;;;29.50;46.30;;;;;;5034936;28;20045;-67
2023/08/25 05:11:29;;;;;;;7.63;4.68;;;29.60;45.80;;;;;;5051668;28;20044;-68
2023/08/25 05:13:57;;;;;;;7.82;4.40;;;29.60;45.70;;;;;;5063556;28;20037;-67
2023/08/25 05:16:23;;;;;;;10.45;4.45;;;29.50;45.40;;;;;;5071802;28;20036;-68
2023/08/25 05:18:56;;;;;;;8.57;4.20;;;29.40;45.30;;;;;;5071810;28;20070;-68
2023/08/25 05:21:22;;;;;;;8.05;3.90;;;29.50;45.20;;;;;;5071634;28;20032;-67
2023/08/25 05:23:49;;;;;;;8.85;4.60;;;29.50;45.30;;;;;;5071608;28;20097;-67
2023/08/25 05:26:36;;;;;;;7.95;4.22;;;29.50;45.80;;;;;;5070160;28;20044;-67
2023/08/25 05:29:03;;;;;;;6.25;4.00;;;29.50;46.20;;;;;;5053477;28;20852;-67
2023/08/25 05:31:29;;;;;;;8.38;5.10;;;29.50;46.50;;;;;;5070155;28;20131;-67
2023/08/25 05:34:16;;;;;;;6.40;4.30;;;29.60;46.40;;;;;;5069627;28;20556;-67
2023/08/25 05:37:05;;;;;;;8.43;5.18;;;29.50;46.30;;;;;;5069836;28;20076;-67
2023/08/25 05:39:31;;;;;;;8.43;5.50;;;29.70;46.10;;;;;;5036616;28;20467;-67
2023/08/25 05:41:57;;;;;;;12.52;4.70;;;29.50;46.00;;;;;;5069885;28;20044;-67
2023/08/25 05:44:23;;;;;;;11.02;7.03;;;29.60;45.80;;;;;;5069816;28;20032;-67
2023/08/25 05:46:49;;;;;;;8.50;5.38;;;29.60;45.20;;;;;;5052927;28;20049;-67
2023/08/25 05:49:17;;;;;;;11.70;5.18;;;29.90;45.30;;;;;;5052984;28;20510;-68
2023/08/25 05:51:44;;;;;;;7.53;4.93;;;29.70;44.60;;;;;;5053192;28;20471;-67
2023/08/25 05:54:11;;;;;;;11.93;5.97;;;29.60;44.40;;;;;;5053106;28;20123;-67
2023/08/25 05:56:38;;;;;;;18.95;6.13;;;29.70;44.40;;;;;;5004871;28;20204;-67
2023/08/25 05:59:04;;;;;;;10.20;4.97;;;29.70;44.40;;;;;;5049519;28;20037;-66
2023/08/25 06:01:30;;;;;;;9.45;4.45;;;29.70;44.90;;;;;;5049020;28;20052;-67
2023/08/25 06:03:56;;;;;;;11.13;5.60;;;29.60;45.20;;;;;;5049723;28;20136;-67
2023/08/25 06:06:23;;;;;;;5.78;4.28;;;29.80;45.40;;;;;;5049727;28;20457;-67
2023/08/25 06:08:49;;;;;;;9.52;4.95;;;29.70;45.60;;;;;;5051688;28;20128;-67
2023/08/25 06:11:15;;;;;;;10.98;5.55;;;29.80;47.30;;;;;;5049700;28;20072;-69
2023/08/25 06:13:41;;;;;;;8.32;5.15;;;29.90;47.60;;;;;;5052239;28;20100;-67
2023/08/25 06:16:08;;;;;;;6.45;4.88;;;29.80;47.20;;;;;;5050053;28;20049;-67
2023/08/25 06:18:34;;;;;;;10.25;6.13;;;29.80;47.00;;;;;;5052088;28;20374;-66
2023/08/25 06:21:00;;;;;;;11.63;5.22;;;29.80;46.90;;;;;;5051063;28;20522;-67
2023/08/25 06:23:26;;;;;;;8.15;4.85;;;29.80;47.20;;;;;;5052648;28;20025;-68
2023/08/25 06:25:52;;;;;;;8.15;4.65;;;29.70;47.50;;;;;;5072064;28;20048;-68
2023/08/25 06:28:18;;;;;;;8.98;4.90;;;29.90;46.60;;;;;;5071749;28;20484;-69
2023/08/25 06:30:48;;;;;;;10.10;4.68;;;29.80;47.00;;;;;;5060733;28;20033;-68
2023/08/25 06:33:14;;;;;;;6.80;4.63;;;29.70;46.20;;;;;;5051726;28;20036;-68
2023/08/25 06:35:40;;;;;;;7.50;4.68;;;29.70;44.80;;;;;;5051529;28;20090;-68
2023/08/25 06:38:06;;;;;;;6.15;4.63;;;29.70;44.90;;;;;;5052459;28;20140;-68
2023/08/25 06:40:36;;;;;;;6.47;4.30;;;29.70;44.10;;;;;;5071347;28;20024;-68
2023/08/25 06:43:02;;;;;;;7.70;4.53;;;29.70;44.10;;;;;;5071185;28;20036;-68
2023/08/25 06:45:30;;;;;;;8.88;4.82;;;29.60;42.70;;;;;;5071267;28;20115;-67
2023/08/25 06:47:57;;;;;;;7.13;3.85;;;29.40;43.50;;;;;;5071478;28;20068;-68
2023/08/25 06:50:23;;;;;;;9.57;3.83;;;29.40;44.40;;;;;;5071150;28;20539;-69
2023/08/25 06:52:50;;;;;;;12.82;5.43;;;29.60;44.60;;;;;;5071006;28;20040;-67
2023/08/25 06:55:19;;;;;;;18.63;5.95;;;29.50;44.20;;;;;;5066635;28;20046;-68
2023/08/25 06:57:46;;;;;;;11.30;5.38;;;29.70;45.00;;;;;;5051336;28;20037;-68
2023/08/25 07:00:13;;;;;;;8.23;4.75;;;29.50;47.40;;;;;;5049830;28;20043;-68
2023/08/25 07:02:43;;;;;;;12.48;4.75;;;29.60;44.80;;;;;;5050917;28;20041;-69
2023/08/25 07:05:10;;;;;;;7.45;4.90;;;29.50;44.40;;;;;;5051877;28;20044;-68
2023/08/25 07:07:36;;;;;;;11.20;5.22;;;29.70;44.50;;;;;;5070525;28;20037;-70
2023/08/25 07:10:02;;;;;;;10.85;5.78;;;29.60;46.60;;;;;;5069860;28;20040;-70
2023/08/25 07:12:29;;;;;;;16.85;6.22;;;29.80;48.30;;;;;;5069699;28;20040;-70
2023/08/25 07:14:55;;;;;;;15.65;6.22;;;29.90;49.40;;;;;;5070666;28;20482;-70
2023/08/25 07:17:21;;;;;;;17.80;6.88;;;29.80;48.10;;;;;;5070765;28;20502;-70
2023/08/25 07:19:47;;;;;;;27.92;7.45;;;29.90;46.90;;;;;;5070871;28;20034;-70
2023/08/25 07:22:13;;;;;;;22.25;9.18;;;30.10;47.30;;;;;;5059111;28;20125;-69
2023/08/25 07:24:39;;;;;;;9.32;5.20;;;30.20;49.50;;;;;;5050781;28;20471;-68
2023/08/25 07:27:05;;;;;;;11.60;5.50;;;30.20;44.80;;;;;;5050866;28;20032;-69
2023/08/25 07:29:35;;;;;;;9.07;5.10;;;30.10;43.80;;;;;;5053632;28;20035;-68
2023/08/25 07:32:02;;;;;;;10.27;5.30;;;30.20;43.60;;;;;;5070091;28;20029;-69
2023/08/25 07:34:28;;;;;;;7.20;4.22;;;30.40;43.00;;;;;;5070485;28;20025;-72
2023/08/25 07:36:54;;;;;;;7.57;4.95;;;30.20;44.90;;;;;;5068987;28;20048;-70
2023/08/25 07:39:20;;;;;;;11.32;4.40;;;30.20;43.70;;;;;;5070307;28;20472;-71
2023/08/25 07:41:46;;;;;;;8.88;4.85;;;30.40;47.20;;;;;;5070217;28;20035;-70
2023/08/25 07:44:12;;;;;;;10.32;4.80;;;30.50;44.80;;;;;;5070490;28;20043;-69
2023/08/25 07:46:39;;;;;;;12.57;6.18;;;30.40;44.20;;;;;;5069146;28;20508;-69
2023/08/25 07:49:08;;;;;;;7.82;5.18;;;30.50;46.80;;;;;;5070695;28;20029;-69
2023/08/25 07:51:35;;;;;;;9.45;4.75;;;30.60;46.90;;;;;;5068950;28;20067;-69
2023/08/25 07:54:01;;;;;;;8.32;5.35;;;30.60;45.40;;;;;;5070442;28;20051;-69
2023/08/25 07:56:28;;;;;;;9.07;4.97;;;30.70;45.20;;;;;;5070713;28;20037;-69
2023/08/25 07:58:54;;;;;;;10.45;4.70;;;30.70;48.10;;;;;;5070665;28;20037;-74
2023/08/25 08:01:20;;;;;;;15.82;6.00;;;30.90;44.20;;;;;;5064562;28;20032;-68
2023/08/25 08:03:47;;;;;;;13.48;6.80;;;30.90;46.30;;;;;;5050392;28;20367;-68
2023/08/25 08:06:13;;;;;;;15.65;6.65;;;30.90;46.40;;;;;;5050110;28;20159;-67
2023/08/25 08:08:39;;;;;;;13.82;6.15;;;31.00;47.10;;;;;;5049893;28;20044;-67
2023/08/25 08:11:05;;;;;;;16.45;6.40;;;31.00;46.80;;;;;;5050227;28;20037;-67
2023/08/25 08:13:31;;;;;;;15.38;5.50;;;31.10;47.70;;;;;;5050193;28;20036;-67
2023/08/25 08:15:57;;;;;;;12.98;6.25;;;31.20;46.80;;;;;;5050432;28;20553;-67
2023/08/25 08:18:23;;;;;;;18.77;6.90;;;31.10;46.70;;;;;;5050821;28;20033;-68
2023/08/25 08:20:49;;;;;;;17.45;7.90;;;31.10;46.30;;;;;;5050369;28;20037;-68
2023/08/25 08:23:15;;;;;;;30.05;9.73;;;31.30;46.20;;;;;;5051605;28;20041;-68
2023/08/25 08:25:41;;;;;;;52.38;12.55;;;31.30;45.70;;;;;;5051854;28;20059;-68
2023/08/25 08:28:08;;;;;;;62.03;14.70;;;31.40;45.50;;;;;;5054365;28;20069;-68
2023/08/25 08:30:35;;;;;;;62.05;15.80;;;31.40;45.20;;;;;;5065982;28;20059;-68
2023/08/25 08:33:01;;;;;;;16.85;5.68;;;31.40;45.10;;;;;;5054871;28;20044;-68
2023/08/25 08:35:27;;;;;;;9.40;4.72;;;31.40;43.10;;;;;;5073819;28;20069;-69
2023/08/25 08:37:53;;;;;;;8.18;5.22;;;31.40;43.80;;;;;;5073924;28;20468;-67
2023/08/25 08:40:20;;;;;;;11.35;5.50;;;31.40;42.90;;;;;;5074067;28;20036;-68
2023/08/25 08:42:49;;;;;;;8.93;5.07;;;31.20;42.20;;;;;;5073731;28;20430;-69
2023/08/25 08:45:17;;;;;;;12.25;5.32;;;31.40;42.00;;;;;;5073964;28;20082;-70
2023/08/25 08:47:44;;;;;;;14.35;5.78;;;31.30;42.00;;;;;;5073433;28;20060;-69
2023/08/25 08:50:10;;;;;;;8.15;5.18;;;31.30;43.70;;;;;;5073924;28;20044;-70
2023/08/25 08:52:36;;;;;;;7.80;4.63;;;31.20;45.90;;;;;;5073641;28;20044;-68
2023/08/25 08:55:07;;;;;;;6.25;4.38;;;31.20;45.00;;;;;;5074004;28;20035;-69
2023/08/25 08:57:33;;;;;;;5.00;4.18;;;31.20;43.90;;;;;;5073626;28;20123;-68
2023/08/25 08:59:59;;;;;;;6.70;4.18;;;31.30;43.40;;;;;;5054703;28;20136;-68
2023/08/25 09:02:29;;;;;;;5.47;3.83;;;31.30;43.10;;;;;;5069961;28;20028;-70
2023/08/25 09:05:00;;;;;;;5.00;3.65;;;31.20;43.20;;;;;;5073310;28;20036;-69
2023/08/25 09:07:28;;;;;;;9.13;3.33;;;31.00;43.10;;;;;;5073780;28;20032;-70
2023/08/25 09:09:54;;;;;;;8.25;3.97;;;31.20;43.20;;;;;;5073544;28;20044;-69
2023/08/25 09:12:20;;;;;;;6.18;3.83;;;31.20;43.30;;;;;;5072197;28;20025;-69
2023/08/25 09:14:47;;;;;;;10.30;4.15;;;31.20;43.40;;;;;;5073383;28;20060;-69
2023/08/25 09:17:16;;;;;;;5.25;4.07;;;31.00;43.50;;;;;;5073331;28;20032;-69
2023/08/25 09:19:42;;;;;;;6.47;4.00;;;31.10;45.80;;;;;;5073427;28;20055;-68
2023/08/25 09:22:15;;;;;;;4.82;3.70;;;31.10;45.40;;;;;;5073383;28;20025;-69
2023/08/25 09:24:43;;;;;;;7.15;3.88;;;31.20;46.70;;;;;;5073030;28;20032;-69
2023/08/25 09:27:25;;;;;;;149.43;69.20;;;31.10;47.60;;;;;;5073166;28;20039;-69
2023/08/25 09:29:59;;;;;;;37.28;20.80;;;31.30;46.40;;;;;;5072870;28;20512;-70
2023/08/25 09:32:27;;;;;;;12.27;7.55;;;31.20;46.20;;;;;;5072968;28;20125;-69
2023/08/25 09:34:54;;;;;;;13.52;6.10;;;31.30;46.00;;;;;;5072090;28;20036;-70
2023/08/25 09:37:20;;;;;;;6.57;5.60;;;31.40;45.80;;;;;;5072887;28;20495;-70
2023/08/25 09:39:46;;;;;;;7.72;4.70;;;31.20;45.90;;;;;;5072952;28;20127;-73
2023/08/25 09:42:12;;;;;;;5.78;4.57;;;31.30;45.80;;;;;;5060806;28;20029;-69
2023/08/25 09:44:38;;;;;;;8.70;4.85;;;31.30;45.60;;;;;;5033895;28;20052;-68
2023/08/25 09:47:08;;;;;;;5.90;4.28;;;31.20;45.90;;;;;;5052259;28;20056;-68
2023/08/25 09:49:39;;;;;;;6.43;4.72;;;31.30;46.00;;;;;;5052670;28;20425;-69
2023/08/25 09:52:06;;;;;;;10.88;5.00;;;31.20;46.20;;;;;;5052186;28;20076;-68
2023/08/25 09:54:34;;;;;;;6.80;4.57;;;31.10;46.30;;;;;;5052295;28;20029;-68
2023/08/25 09:57:01;;;;;;;12.15;4.93;;;31.20;46.30;;;;;;5052198;28;20056;-69
2023/08/25 09:59:28;;;;;;;9.05;4.47;;;31.10;47.10;;;;;;5051322;28;20768;-68
2023/08/25 10:01:54;;;;;;;8.95;4.20;;;31.10;47.10;;;;;;5052327;28;20115;-68
2023/08/25 10:04:21;;;;;;;8.40;4.30;;;31.00;47.10;;;;;;5052355;28;20040;-68
2023/08/25 10:06:48;;;;;;;9.05;4.13;;;31.10;47.20;;;;;;5052182;28;20033;-68
2023/08/25 10:09:15;;;;;;;9.07;5.93;;;31.00;47.50;;;;;;5052530;28;20037;-68
2023/08/25 10:11:45;;;;;;;6.65;5.30;;;31.00;49.00;;;;;;5052082;28;20547;-72
2023/08/25 10:14:14;;;;;;;25.92;8.50;;;31.20;47.80;;;;;;5052132;28;20063;-69
2023/08/25 10:16:49;;;;;;;6.03;4.97;;;31.20;48.00;;;;;;5051644;28;20440;-70
2023/08/25 10:19:26;;;;;;;11.98;4.45;;;31.40;49.10;;;;;;5050318;28;20463;-71
2023/08/25 10:21:53;;;;;;;8.10;4.63;;;31.30;48.20;;;;;;5051713;28;20033;-71
2023/08/25 10:24:21;;;;;;;9.88;4.65;;;31.40;48.00;;;;;;5051925;28;20083;-71
2023/08/25 10:26:49;;;;;;;9.18;4.65;;;31.20;47.80;;;;;;5052272;28;20041;-70
2023/08/25 10:29:18;;;;;;;7.43;4.03;;;31.20;47.60;;;;;;5051680;28;20039;-69
2023/08/25 10:32:01;;;;;;;6.18;4.18;;;31.20;47.50;;;;;;5051907;28;20493;-71
2023/08/25 10:34:42;;;;;;;8.57;3.92;;;31.10;47.60;;;;;;5051770;28;20443;-71
2023/08/25 10:37:10;;;;;;;11.18;4.57;;;31.10;47.50;;;;;;5050231;28;20192;-70
2023/08/25 10:39:46;;;;;;;8.85;5.57;;;31.30;49.70;;;;;;5031862;28;20489;-69
2023/08/25 10:42:13;;;;;;;7.10;4.72;;;31.70;54.40;;;;;;5031374;28;20106;-69
2023/08/25 10:44:42;;;;;;;5.35;4.07;;;31.80;52.00;;;;;;5030383;28;20033;-70
2023/08/25 10:47:08;;;;;;;6.95;4.28;;;31.80;50.10;;;;;;5041351;28;20138;-69
2023/08/25 10:49:40;;;;;;;5.20;4.20;;;31.80;49.20;;;;;;5051289;28;20033;-69
2023/08/25 10:52:19;;;;;;;8.77;4.47;;;31.70;48.50;;;;;;5051409;28;20396;-69
2023/08/25 10:54:46;;;;;;;6.93;3.70;;;31.50;48.10;;;;;;5051274;28;20041;-69
2023/08/25 10:57:19;;;;;;;4.70;3.88;;;31.60;47.80;;;;;;5050960;28;20037;-69
2023/08/25 10:59:54;;;;;;;;;;;31.50;47.60;;;;;;5051950;28;20021;-69
2023/08/25 11:02:38;;;;;;;6.47;5.07;;;31.60;47.50;;;;;;5051221;28;19916;-70
2023/08/25 11:05:26;;;;;;;5.57;4.93;;;31.60;48.60;;;;;;5063586;28;20044;-70
2023/08/25 11:07:55;;;;;;;7.18;5.05;;;31.70;49.80;;;;;;5067738;28;20096;-70
2023/08/25 11:10:22;;;;;;;6.93;4.68;;;31.70;50.60;;;;;;5051196;28;20544;-70
2023/08/25 11:12:55;;;;;;;5.07;4.50;;;31.90;50.60;;;;;;5050947;28;20519;-70
2023/08/25 11:15:22;;;;;;;5.03;4.25;;;31.90;49.70;;;;;;5050938;28;20587;-71
2023/08/25 11:17:48;;;;;;;5.60;4.07;;;31.90;47.10;;;;;;5050218;28;20029;-69
2023/08/25 11:20:17;;;;;;;6.85;4.28;;;31.90;46.60;;;;;;5050703;28;20044;-71
2023/08/25 11:22:54;;;;;;;6.70;4.75;;;31.80;46.00;;;;;;5050825;28;20045;-70
2023/08/25 11:25:21;;;;;;;5.30;4.05;;;31.70;45.60;;;;;;5051076;28;20044;-70
2023/08/25 11:27:50;;;;;;;6.78;4.07;;;31.70;45.30;;;;;;5050826;28;20032;-70
2023/08/25 11:30:17;;;;;;;4.80;3.63;;;31.60;45.10;;;;;;5060237;28;20499;-70
2023/08/25 11:32:48;;;;;;;6.35;3.53;;;31.50;44.70;;;;;;5070540;28;20028;-70
2023/08/25 11:35:14;;;;;;;4.70;3.17;;;31.60;44.30;;;;;;5055791;28;20386;-71
2023/08/25 11:37:41;;;;;;;4.40;3.08;;;31.50;44.00;;;;;;5050652;28;20044;-71
2023/08/25 11:40:19;;;;;;;6.43;3.33;;;31.40;43.60;;;;;;5050828;28;20033;-71
2023/08/25 11:42:46;;;;;;;6.18;3.30;;;31.50;43.40;;;;;;5050536;28;20115;-72
2023/08/25 11:45:13;;;;;;;5.22;3.63;;;31.40;43.20;;;;;;5050757;28;20104;-71
2023/08/25 11:47:39;;;;;;;3.90;2.97;;;31.40;43.00;;;;;;5051037;28;20092;-71
2023/08/25 11:50:06;;;;;;;6.30;3.05;;;31.40;42.80;;;;;;5050744;28;20025;-71
2023/08/25 11:52:36;;;;;;;5.63;3.38;;;31.30;42.70;;;;;;5050416;28;20057;-71
2023/08/25 11:55:02;;;;;;;4.38;2.95;;;31.40;42.50;;;;;;5050631;28;20103;-71
2023/08/25 11:57:36;;;;;;;8.82;3.88;;;31.30;42.30;;;;;;5049249;28;20476;-70
2023/08/25 12:00:06;;;;;;;4.97;3.58;;;31.30;42.20;;;;;;5054359;28;20044;-71
2023/08/25 12:02:34;;;;;;;5.40;3.50;;;31.30;42.10;;;;;;5053393;28;20396;-73
2023/08/25 12:05:04;;;;;;;3.78;2.95;;;31.30;42.00;;;;;;5054482;28;20036;-70
2023/08/25 12:07:33;;;;;;;7.15;3.50;;;31.20;41.80;;;;;;5053247;28;20060;-72
2023/08/25 12:10:03;;;;;;;3.83;3.00;;;31.10;41.80;;;;;;5054319;28;20037;-71
2023/08/25 12:12:31;;;;;;;3.30;3.00;;;31.10;41.80;;;;;;5054103;28;20047;-71
2023/08/25 12:14:57;;;;;;;4.05;2.92;;;31.10;41.70;;;;;;5054082;28;20037;-70
2023/08/25 12:17:23;;;;;;;5.40;2.75;;;31.20;41.80;;;;;;5053834;28;20041;-69
2023/08/25 12:19:49;;;;;;;3.80;2.63;;;31.00;41.50;;;;;;5054235;28;20033;-69
2023/08/25 12:22:18;;;;;;;6.93;3.65;;;31.00;41.10;;;;;;5054138;28;20039;-69
2023/08/25 12:24:45;;;;;;;8.10;3.58;;;31.00;41.60;;;;;;5053865;28;20035;-69
2023/08/25 12:27:11;;;;;;;6.47;2.90;;;31.00;45.20;;;;;;5054033;28;20041;-70
2023/08/25 12:29:37;;;;;;;5.72;3.10;;;30.90;47.40;;;;;;5057826;28;20189;-69
2023/08/25 12:32:04;;;;;;;2.75;2.33;;;31.00;45.90;;;;;;5074064;28;20130;-69
2023/08/25 12:34:31;;;;;;;4.78;2.70;;;30.90;44.40;;;;;;5074046;28;20036;-69
2023/08/25 12:36:57;;;;;;;5.30;2.53;;;30.90;44.30;;;;;;5073899;28;20043;-68
2023/08/25 12:39:24;;;;;;;5.22;3.08;;;30.80;44.10;;;;;;5072625;28;20636;-69
2023/08/25 12:41:50;;;;;;;3.95;2.58;;;30.80;44.00;;;;;;5073722;28;20388;-69
2023/08/25 12:44:16;;;;;;;5.82;2.78;;;30.80;44.00;;;;;;5072312;28;20040;-68
2023/08/25 12:46:42;;;;;;;5.45;3.08;;;30.80;44.10;;;;;;5073674;28;20056;-69
2023/08/25 12:49:08;;;;;;;4.30;2.63;;;30.80;44.10;;;;;;5073942;28;20117;-69